sensor_id;sensor_type;location;lat;lon;timestamp;P1;durP1;ratioP1;P2;durP2;ratioP2
24715;SDS011;12822;50.124;8.678;2022-07-23T00:00:17;8.60;;;6.10;;
24715;SDS011;12822;50.124;8.678;2022-07-23T00:02:43;8.35;;;5.85;;
24715;SDS011;12822;50.124;8.678;2022-07-23T00:05:09;10.00;;;6.10;;
24715;SDS011;12822;50.124;8.678;2022-07-23T00:07:36;7.00;;;5.60;;
24715;SDS011;12822;50.124;8.678;2022-07-23T00:10:02;10.20;;;6.18;;
24715;SDS011;12822;50.124;8.678;2022-07-23T00:12:28;9.30;;;6.68;;
24715;SDS011;12822;50.124;8.678;2022-07-23T00:14:54;8.60;;;6.35;;
24715;SDS011;12822;50.124;8.678;2022-07-23T00:17:20;11.85;;;6.30;;
24715;SDS011;12822;50.124;8.678;2022-07-23T00:19:46;8.50;;;5.85;;
24715;SDS011;12822;50.124;8.678;2022-07-23T00:22:12;7.63;;;6.60;;
24715;SDS011;12822;50.124;8.678;2022-07-23T00:24:38;8.77;;;6.70;;
24715;SDS011;12822;50.124;8.678;2022-07-23T00:27:04;7.95;;;6.10;;
24715;SDS011;12822;50.124;8.678;2022-07-23T00:29:30;9.10;;;6.63;;
24715;SDS011;12822;50.124;8.678;2022-07-23T00:31:56;10.95;;;6.80;;
24715;SDS011;12822;50.124;8.678;2022-07-23T00:34:22;11.48;;;6.60;;
24715;SDS011;12822;50.124;8.678;2022-07-23T00:36:48;7.45;;;6.35;;
24715;SDS011;12822;50.124;8.678;2022-07-23T00:39:14;8.00;;;6.55;;
24715;SDS011;12822;50.124;8.678;2022-07-23T00:41:40;8.85;;;6.47;;
24715;SDS011;12822;50.124;8.678;2022-07-23T00:44:17;12.90;;;6.50;;
24715;SDS011;12822;50.124;8.678;2022-07-23T00:46:47;9.85;;;6.80;;
24715;SDS011;12822;50.124;8.678;2022-07-23T00:49:13;9.07;;;6.57;;
24715;SDS011;12822;50.124;8.678;2022-07-23T00:51:39;6.97;;;6.03;;
24715;SDS011;12822;50.124;8.678;2022-07-23T00:54:05;9.30;;;6.43;;
24715;SDS011;12822;50.124;8.678;2022-07-23T00:56:31;11.30;;;6.70;;
24715;SDS011;12822;50.124;8.678;2022-07-23T00:58:59;8.80;;;6.90;;
24715;SDS011;12822;50.124;8.678;2022-07-23T01:01:26;9.73;;;7.05;;
24715;SDS011;12822;50.124;8.678;2022-07-23T01:03:52;14.02;;;6.60;;
24715;SDS011;12822;50.124;8.678;2022-07-23T01:06:18;10.95;;;7.00;;
24715;SDS011;12822;50.124;8.678;2022-07-23T01:08:44;8.82;;;6.57;;
24715;SDS011;12822;50.124;8.678;2022-07-23T01:11:10;11.48;;;6.55;;
24715;SDS011;12822;50.124;8.678;2022-07-23T01:13:42;7.60;;;6.40;;
24715;SDS011;12822;50.124;8.678;2022-07-23T01:16:08;11.48;;;6.55;;
24715;SDS011;12822;50.124;8.678;2022-07-23T01:18:34;7.53;;;6.50;;
24715;SDS011;12822;50.124;8.678;2022-07-23T01:21:00;9.20;;;6.70;;
24715;SDS011;12822;50.124;8.678;2022-07-23T01:23:26;10.35;;;7.22;;
24715;SDS011;12822;50.124;8.678;2022-07-23T01:25:52;9.88;;;6.60;;
24715;SDS011;12822;50.124;8.678;2022-07-23T01:28:18;10.30;;;6.57;;
24715;SDS011;12822;50.124;8.678;2022-07-23T01:30:45;7.75;;;6.40;;
24715;SDS011;12822;50.124;8.678;2022-07-23T01:33:11;9.13;;;6.57;;
24715;SDS011;12822;50.124;8.678;2022-07-23T01:35:37;8.23;;;6.72;;
24715;SDS011;12822;50.124;8.678;2022-07-23T01:38:03;7.75;;;6.00;;
24715;SDS011;12822;50.124;8.678;2022-07-23T01:40:29;9.35;;;6.68;;
24715;SDS011;12822;50.124;8.678;2022-07-23T01:42:55;10.27;;;6.32;;
24715;SDS011;12822;50.124;8.678;2022-07-23T01:45:21;9.90;;;6.95;;
24715;SDS011;12822;50.124;8.678;2022-07-23T01:47:47;8.35;;;6.68;;
24715;SDS011;12822;50.124;8.678;2022-07-23T01:50:13;9.07;;;6.32;;
24715;SDS011;12822;50.124;8.678;2022-07-23T01:52:39;10.80;;;6.88;;
24715;SDS011;12822;50.124;8.678;2022-07-23T01:55:05;8.80;;;6.47;;
24715;SDS011;12822;50.124;8.678;2022-07-23T01:57:32;11.98;;;6.50;;
24715;SDS011;12822;50.124;8.678;2022-07-23T01:59:58;11.18;;;6.57;;
24715;SDS011;12822;50.124;8.678;2022-07-23T02:02:24;10.45;;;6.60;;
24715;SDS011;12822;50.124;8.678;2022-07-23T02:04:50;8.50;;;6.75;;
24715;SDS011;12822;50.124;8.678;2022-07-23T02:07:16;9.73;;;6.88;;
24715;SDS011;12822;50.124;8.678;2022-07-23T02:09:42;9.55;;;6.65;;
24715;SDS011;12822;50.124;8.678;2022-07-23T02:12:08;7.72;;;6.55;;
24715;SDS011;12822;50.124;8.678;2022-07-23T02:14:34;9.20;;;6.30;;
24715;SDS011;12822;50.124;8.678;2022-07-23T02:17:00;10.23;;;6.80;;
24715;SDS011;12822;50.124;8.678;2022-07-23T02:19:26;10.15;;;6.68;;
24715;SDS011;12822;50.124;8.678;2022-07-23T02:21:52;9.48;;;6.97;;
24715;SDS011;12822;50.124;8.678;2022-07-23T02:24:19;9.70;;;6.93;;
24715;SDS011;12822;50.124;8.678;2022-07-23T02:26:45;8.95;;;7.00;;
24715;SDS011;12822;50.124;8.678;2022-07-23T02:29:11;9.63;;;6.82;;
24715;SDS011;12822;50.124;8.678;2022-07-23T02:31:38;11.52;;;6.70;;
24715;SDS011;12822;50.124;8.678;2022-07-23T02:34:04;9.50;;;6.95;;
24715;SDS011;12822;50.124;8.678;2022-07-23T02:36:30;10.00;;;7.18;;
24715;SDS011;12822;50.124;8.678;2022-07-23T02:38:56;10.00;;;6.47;;
24715;SDS011;12822;50.124;8.678;2022-07-23T02:41:22;10.88;;;7.22;;
24715;SDS011;12822;50.124;8.678;2022-07-23T02:43:48;9.30;;;6.78;;
24715;SDS011;12822;50.124;8.678;2022-07-23T02:46:14;7.82;;;6.82;;
24715;SDS011;12822;50.124;8.678;2022-07-23T02:48:40;9.55;;;6.60;;
24715;SDS011;12822;50.124;8.678;2022-07-23T02:51:06;7.93;;;6.97;;
24715;SDS011;12822;50.124;8.678;2022-07-23T02:53:32;12.85;;;6.85;;
24715;SDS011;12822;50.124;8.678;2022-07-23T02:55:58;7.95;;;6.78;;
24715;SDS011;12822;50.124;8.678;2022-07-23T02:58:24;10.35;;;6.88;;
24715;SDS011;12822;50.124;8.678;2022-07-23T03:00:51;7.70;;;6.68;;
24715;SDS011;12822;50.124;8.678;2022-07-23T03:03:17;9.73;;;6.82;;
24715;SDS011;12822;50.124;8.678;2022-07-23T03:05:43;12.60;;;7.50;;
24715;SDS011;12822;50.124;8.678;2022-07-23T03:08:09;11.30;;;7.13;;
24715;SDS011;12822;50.124;8.678;2022-07-23T03:10:35;8.73;;;7.18;;
24715;SDS011;12822;50.124;8.678;2022-07-23T03:13:01;11.02;;;6.93;;
24715;SDS011;12822;50.124;8.678;2022-07-23T03:15:27;8.50;;;6.45;;
24715;SDS011;12822;50.124;8.678;2022-07-23T03:17:53;11.35;;;7.22;;
24715;SDS011;12822;50.124;8.678;2022-07-23T03:20:19;10.30;;;6.75;;
24715;SDS011;12822;50.124;8.678;2022-07-23T03:22:45;11.52;;;6.65;;
24715;SDS011;12822;50.124;8.678;2022-07-23T03:25:11;11.18;;;7.07;;
24715;SDS011;12822;50.124;8.678;2022-07-23T03:27:37;11.60;;;6.63;;
24715;SDS011;12822;50.124;8.678;2022-07-23T03:30:03;9.27;;;7.43;;
24715;SDS011;12822;50.124;8.678;2022-07-23T03:32:29;9.73;;;7.38;;
24715;SDS011;12822;50.124;8.678;2022-07-23T03:34:56;8.88;;;7.47;;
24715;SDS011;12822;50.124;8.678;2022-07-23T03:37:22;11.25;;;7.13;;
24715;SDS011;12822;50.124;8.678;2022-07-23T03:39:48;8.25;;;6.68;;
24715;SDS011;12822;50.124;8.678;2022-07-23T03:42:14;11.25;;;7.90;;
24715;SDS011;12822;50.124;8.678;2022-07-23T03:44:40;14.07;;;8.20;;
24715;SDS011;12822;50.124;8.678;2022-07-23T03:47:06;10.18;;;7.38;;
24715;SDS011;12822;50.124;8.678;2022-07-23T03:49:32;12.77;;;8.38;;
24715;SDS011;12822;50.124;8.678;2022-07-23T03:51:58;13.15;;;7.60;;
24715;SDS011;12822;50.124;8.678;2022-07-23T03:54:24;8.38;;;7.25;;
24715;SDS011;12822;50.124;8.678;2022-07-23T03:56:50;11.10;;;8.52;;
24715;SDS011;12822;50.124;8.678;2022-07-23T03:59:16;13.77;;;8.18;;
24715;SDS011;12822;50.124;8.678;2022-07-23T04:01:42;12.82;;;8.40;;
24715;SDS011;12822;50.124;8.678;2022-07-23T04:04:08;12.95;;;8.18;;
24715;SDS011;12822;50.124;8.678;2022-07-23T04:06:35;14.02;;;8.63;;
24715;SDS011;12822;50.124;8.678;2022-07-23T04:09:01;11.57;;;8.13;;
24715;SDS011;12822;50.124;8.678;2022-07-23T04:11:27;10.40;;;8.38;;
24715;SDS011;12822;50.124;8.678;2022-07-23T04:13:53;14.35;;;8.77;;
24715;SDS011;12822;50.124;8.678;2022-07-23T04:16:19;11.95;;;8.85;;
24715;SDS011;12822;50.124;8.678;2022-07-23T04:18:45;9.70;;;8.55;;
24715;SDS011;12822;50.124;8.678;2022-07-23T04:21:11;11.02;;;8.85;;
24715;SDS011;12822;50.124;8.678;2022-07-23T04:23:37;10.65;;;7.72;;
24715;SDS011;12822;50.124;8.678;2022-07-23T04:26:03;11.88;;;9.07;;
24715;SDS011;12822;50.124;8.678;2022-07-23T04:28:29;11.10;;;8.57;;
24715;SDS011;12822;50.124;8.678;2022-07-23T04:30:56;11.93;;;8.80;;
24715;SDS011;12822;50.124;8.678;2022-07-23T04:33:22;9.80;;;8.43;;
24715;SDS011;12822;50.124;8.678;2022-07-23T04:35:48;17.90;;;8.95;;
24715;SDS011;12822;50.124;8.678;2022-07-23T04:38:14;10.57;;;8.73;;
24715;SDS011;12822;50.124;8.678;2022-07-23T04:40:40;11.70;;;8.98;;
24715;SDS011;12822;50.124;8.678;2022-07-23T04:43:06;12.77;;;8.43;;
24715;SDS011;12822;50.124;8.678;2022-07-23T04:45:32;12.65;;;8.43;;
24715;SDS011;12822;50.124;8.678;2022-07-23T04:47:58;9.85;;;8.20;;
24715;SDS011;12822;50.124;8.678;2022-07-23T04:50:24;11.27;;;8.02;;
24715;SDS011;12822;50.124;8.678;2022-07-23T04:52:50;12.00;;;8.05;;
24715;SDS011;12822;50.124;8.678;2022-07-23T04:55:16;10.85;;;7.57;;
24715;SDS011;12822;50.124;8.678;2022-07-23T04:57:42;9.93;;;8.57;;
24715;SDS011;12822;50.124;8.678;2022-07-23T05:00:09;8.88;;;7.55;;
24715;SDS011;12822;50.124;8.678;2022-07-23T05:02:35;9.00;;;7.93;;
24715;SDS011;12822;50.124;8.678;2022-07-23T05:05:01;14.50;;;8.35;;
24715;SDS011;12822;50.124;8.678;2022-07-23T05:07:27;10.38;;;8.50;;
24715;SDS011;12822;50.124;8.678;2022-07-23T05:09:53;14.60;;;8.80;;
24715;SDS011;12822;50.124;8.678;2022-07-23T05:12:19;9.85;;;8.27;;
24715;SDS011;12822;50.124;8.678;2022-07-23T05:14:45;10.73;;;8.43;;
24715;SDS011;12822;50.124;8.678;2022-07-23T05:17:11;11.07;;;8.35;;
24715;SDS011;12822;50.124;8.678;2022-07-23T05:19:37;10.48;;;8.05;;
24715;SDS011;12822;50.124;8.678;2022-07-23T05:22:03;12.68;;;7.55;;
24715;SDS011;12822;50.124;8.678;2022-07-23T05:24:29;11.25;;;8.48;;
24715;SDS011;12822;50.124;8.678;2022-07-23T05:26:55;10.68;;;8.48;;
24715;SDS011;12822;50.124;8.678;2022-07-23T05:29:21;12.95;;;8.20;;
24715;SDS011;12822;50.124;8.678;2022-07-23T05:31:47;11.02;;;7.80;;
24715;SDS011;12822;50.124;8.678;2022-07-23T05:34:13;13.90;;;8.38;;
24715;SDS011;12822;50.124;8.678;2022-07-23T05:36:39;11.35;;;8.27;;
24715;SDS011;12822;50.124;8.678;2022-07-23T05:39:05;12.32;;;9.02;;
24715;SDS011;12822;50.124;8.678;2022-07-23T05:41:31;14.68;;;8.40;;
24715;SDS011;12822;50.124;8.678;2022-07-23T05:43:57;12.27;;;8.57;;
24715;SDS011;12822;50.124;8.678;2022-07-23T05:46:23;13.25;;;7.80;;
24715;SDS011;12822;50.124;8.678;2022-07-23T05:48:49;12.27;;;8.65;;
24715;SDS011;12822;50.124;8.678;2022-07-23T05:51:19;12.48;;;8.18;;
24715;SDS011;12822;50.124;8.678;2022-07-23T05:53:45;10.52;;;7.75;;
24715;SDS011;12822;50.124;8.678;2022-07-23T05:56:12;11.38;;;7.60;;
24715;SDS011;12822;50.124;8.678;2022-07-23T05:58:38;11.50;;;7.97;;
24715;SDS011;12822;50.124;8.678;2022-07-23T06:01:04;11.95;;;8.57;;
24715;SDS011;12822;50.124;8.678;2022-07-23T06:03:30;9.98;;;8.07;;
24715;SDS011;12822;50.124;8.678;2022-07-23T06:05:56;12.32;;;8.38;;
24715;SDS011;12822;50.124;8.678;2022-07-23T06:08:22;11.48;;;8.40;;
24715;SDS011;12822;50.124;8.678;2022-07-23T06:10:48;11.43;;;7.93;;
24715;SDS011;12822;50.124;8.678;2022-07-23T06:13:14;15.00;;;7.85;;
24715;SDS011;12822;50.124;8.678;2022-07-23T06:15:40;13.10;;;8.05;;
24715;SDS011;12822;50.124;8.678;2022-07-23T06:18:06;13.20;;;7.63;;
24715;SDS011;12822;50.124;8.678;2022-07-23T06:20:32;9.68;;;7.63;;
24715;SDS011;12822;50.124;8.678;2022-07-23T06:22:58;9.70;;;7.15;;
24715;SDS011;12822;50.124;8.678;2022-07-23T06:25:24;10.93;;;7.00;;
24715;SDS011;12822;50.124;8.678;2022-07-23T06:27:50;10.82;;;7.13;;
24715;SDS011;12822;50.124;8.678;2022-07-23T06:30:16;10.02;;;6.82;;
24715;SDS011;12822;50.124;8.678;2022-07-23T06:32:43;9.50;;;6.65;;
24715;SDS011;12822;50.124;8.678;2022-07-23T06:35:09;8.88;;;6.43;;
24715;SDS011;12822;50.124;8.678;2022-07-23T06:37:35;9.05;;;6.15;;
24715;SDS011;12822;50.124;8.678;2022-07-23T06:40:02;9.38;;;6.43;;
24715;SDS011;12822;50.124;8.678;2022-07-23T06:42:28;11.13;;;5.88;;
24715;SDS011;12822;50.124;8.678;2022-07-23T06:44:54;9.45;;;6.30;;
24715;SDS011;12822;50.124;8.678;2022-07-23T06:47:20;8.27;;;5.50;;
24715;SDS011;12822;50.124;8.678;2022-07-23T06:49:46;14.00;;;6.22;;
24715;SDS011;12822;50.124;8.678;2022-07-23T06:52:12;7.80;;;5.53;;
24715;SDS011;12822;50.124;8.678;2022-07-23T06:54:39;8.45;;;5.32;;
24715;SDS011;12822;50.124;8.678;2022-07-23T06:57:04;7.22;;;5.30;;
24715;SDS011;12822;50.124;8.678;2022-07-23T06:59:30;10.55;;;5.25;;
24715;SDS011;12822;50.124;8.678;2022-07-23T07:01:58;8.05;;;5.40;;
24715;SDS011;12822;50.124;8.678;2022-07-23T07:04:23;9.80;;;5.20;;
24715;SDS011;12822;50.124;8.678;2022-07-23T07:06:50;9.90;;;5.85;;
24715;SDS011;12822;50.124;8.678;2022-07-23T07:09:15;6.88;;;5.03;;
24715;SDS011;12822;50.124;8.678;2022-07-23T07:11:43;8.20;;;4.97;;
24715;SDS011;12822;50.124;8.678;2022-07-23T07:14:08;7.65;;;5.35;;
24715;SDS011;12822;50.124;8.678;2022-07-23T07:16:34;9.40;;;5.15;;
24715;SDS011;12822;50.124;8.678;2022-07-23T07:19:01;6.85;;;4.47;;
24715;SDS011;12822;50.124;8.678;2022-07-23T07:21:27;7.88;;;5.10;;
24715;SDS011;12822;50.124;8.678;2022-07-23T07:23:53;9.30;;;4.63;;
24715;SDS011;12822;50.124;8.678;2022-07-23T07:26:19;7.63;;;4.38;;
24715;SDS011;12822;50.124;8.678;2022-07-23T07:28:44;6.07;;;4.38;;
24715;SDS011;12822;50.124;8.678;2022-07-23T07:31:10;8.38;;;4.15;;
24715;SDS011;12822;50.124;8.678;2022-07-23T07:33:36;8.57;;;4.32;;
24715;SDS011;12822;50.124;8.678;2022-07-23T07:36:03;5.60;;;4.05;;
24715;SDS011;12822;50.124;8.678;2022-07-23T07:38:29;4.47;;;4.03;;
24715;SDS011;12822;50.124;8.678;2022-07-23T07:40:55;7.28;;;4.50;;
24715;SDS011;12822;50.124;8.678;2022-07-23T07:43:21;8.63;;;4.47;;
24715;SDS011;12822;50.124;8.678;2022-07-23T07:45:47;7.03;;;4.18;;
24715;SDS011;12822;50.124;8.678;2022-07-23T07:48:13;5.93;;;3.85;;
24715;SDS011;12822;50.124;8.678;2022-07-23T07:50:39;6.85;;;4.20;;
24715;SDS011;12822;50.124;8.678;2022-07-23T07:53:05;8.23;;;4.07;;
24715;SDS011;12822;50.124;8.678;2022-07-23T07:55:31;8.05;;;4.50;;
24715;SDS011;12822;50.124;8.678;2022-07-23T07:57:57;4.68;;;3.50;;
24715;SDS011;12822;50.124;8.678;2022-07-23T08:00:23;6.15;;;4.05;;
24715;SDS011;12822;50.124;8.678;2022-07-23T08:02:50;7.13;;;3.88;;
24715;SDS011;12822;50.124;8.678;2022-07-23T08:05:20;7.68;;;4.65;;
24715;SDS011;12822;50.124;8.678;2022-07-23T08:07:46;6.28;;;4.32;;
24715;SDS011;12822;50.124;8.678;2022-07-23T08:10:13;5.05;;;3.97;;
24715;SDS011;12822;50.124;8.678;2022-07-23T08:12:39;4.60;;;3.97;;
24715;SDS011;12822;50.124;8.678;2022-07-23T08:15:06;5.13;;;3.60;;
24715;SDS011;12822;50.124;8.678;2022-07-23T08:17:32;6.90;;;3.20;;
24715;SDS011;12822;50.124;8.678;2022-07-23T08:19:58;7.85;;;3.90;;
24715;SDS011;12822;50.124;8.678;2022-07-23T08:22:24;9.40;;;3.70;;
24715;SDS011;12822;50.124;8.678;2022-07-23T08:27:45;7.50;;;3.45;;
24715;SDS011;12822;50.124;8.678;2022-07-23T08:30:12;4.90;;;3.80;;
24715;SDS011;12822;50.124;8.678;2022-07-23T08:33:12;5.57;;;3.78;;
24715;SDS011;12822;50.124;8.678;2022-07-23T08:35:36;3.70;;;3.10;;
24715;SDS011;12822;50.124;8.678;2022-07-23T08:38:03;5.53;;;3.42;;
24715;SDS011;12822;50.124;8.678;2022-07-23T08:40:30;5.85;;;3.78;;
24715;SDS011;12822;50.124;8.678;2022-07-23T08:42:56;5.35;;;3.75;;
24715;SDS011;12822;50.124;8.678;2022-07-23T08:45:24;4.53;;;3.50;;
24715;SDS011;12822;50.124;8.678;2022-07-23T08:47:51;6.10;;;3.53;;
24715;SDS011;12822;50.124;8.678;2022-07-23T08:50:18;3.88;;;3.47;;
24715;SDS011;12822;50.124;8.678;2022-07-23T08:52:44;8.30;;;3.67;;
24715;SDS011;12822;50.124;8.678;2022-07-23T08:55:10;4.50;;;3.05;;
24715;SDS011;12822;50.124;8.678;2022-07-23T08:57:36;5.35;;;3.65;;
24715;SDS011;12822;50.124;8.678;2022-07-23T09:00:03;3.55;;;3.13;;
24715;SDS011;12822;50.124;8.678;2022-07-23T09:02:29;4.18;;;3.05;;
24715;SDS011;12822;50.124;8.678;2022-07-23T09:04:55;7.68;;;3.40;;
24715;SDS011;12822;50.124;8.678;2022-07-23T09:07:21;4.07;;;3.40;;
24715;SDS011;12822;50.124;8.678;2022-07-23T09:09:50;4.68;;;3.00;;
24715;SDS011;12822;50.124;8.678;2022-07-23T09:12:29;7.38;;;3.10;;
24715;SDS011;12822;50.124;8.678;2022-07-23T09:14:56;4.13;;;3.17;;
24715;SDS011;12822;50.124;8.678;2022-07-23T09:17:28;3.95;;;3.10;;
24715;SDS011;12822;50.124;8.678;2022-07-23T09:20:11;4.25;;;3.42;;
24715;SDS011;12822;50.124;8.678;2022-07-23T09:22:38;3.90;;;3.20;;
24715;SDS011;12822;50.124;8.678;2022-07-23T09:25:09;4.55;;;2.88;;
24715;SDS011;12822;50.124;8.678;2022-07-23T09:27:46;4.78;;;2.80;;
24715;SDS011;12822;50.124;8.678;2022-07-23T09:30:12;4.20;;;3.08;;
24715;SDS011;12822;50.124;8.678;2022-07-23T09:32:39;7.93;;;3.20;;
24715;SDS011;12822;50.124;8.678;2022-07-23T09:35:05;5.05;;;3.20;;
24715;SDS011;12822;50.124;8.678;2022-07-23T09:37:31;5.82;;;3.65;;
24715;SDS011;12822;50.124;8.678;2022-07-23T09:40:07;4.80;;;3.20;;
24715;SDS011;12822;50.124;8.678;2022-07-23T09:42:34;4.07;;;3.17;;
24715;SDS011;12822;50.124;8.678;2022-07-23T09:45:00;3.75;;;3.28;;
24715;SDS011;12822;50.124;8.678;2022-07-23T09:47:28;5.82;;;3.30;;
24715;SDS011;12822;50.124;8.678;2022-07-23T09:52:30;4.40;;;3.75;;
24715;SDS011;12822;50.124;8.678;2022-07-23T09:54:59;4.57;;;3.38;;
24715;SDS011;12822;50.124;8.678;2022-07-23T09:57:26;6.07;;;3.72;;
24715;SDS011;12822;50.124;8.678;2022-07-23T09:59:52;6.45;;;3.20;;
24715;SDS011;12822;50.124;8.678;2022-07-23T10:02:18;9.48;;;3.20;;
24715;SDS011;12822;50.124;8.678;2022-07-23T10:04:44;4.45;;;3.33;;
24715;SDS011;12822;50.124;8.678;2022-07-23T10:07:11;4.13;;;3.15;;
24715;SDS011;12822;50.124;8.678;2022-07-23T10:09:40;5.90;;;2.80;;
24715;SDS011;12822;50.124;8.678;2022-07-23T10:12:13;4.55;;;2.90;;
24715;SDS011;12822;50.124;8.678;2022-07-23T10:14:58;5.13;;;3.30;;
24715;SDS011;12822;50.124;8.678;2022-07-23T10:17:25;5.47;;;3.00;;
24715;SDS011;12822;50.124;8.678;2022-07-23T10:19:52;7.20;;;3.45;;
24715;SDS011;12822;50.124;8.678;2022-07-23T10:22:19;4.32;;;3.33;;
24715;SDS011;12822;50.124;8.678;2022-07-23T10:24:58;4.10;;;3.40;;
24715;SDS011;12822;50.124;8.678;2022-07-23T10:29:52;4.80;;;3.40;;
24715;SDS011;12822;50.124;8.678;2022-07-23T10:32:24;3.83;;;3.25;;
24715;SDS011;12822;50.124;8.678;2022-07-23T10:34:55;5.35;;;3.47;;
24715;SDS011;12822;50.124;8.678;2022-07-23T10:42:36;4.68;;;3.08;;
24715;SDS011;12822;50.124;8.678;2022-07-23T10:45:21;7.55;;;3.17;;
24715;SDS011;12822;50.124;8.678;2022-07-23T10:47:48;3.38;;;3.08;;
24715;SDS011;12822;50.124;8.678;2022-07-23T10:50:19;7.45;;;3.33;;
24715;SDS011;12822;50.124;8.678;2022-07-23T10:57:57;3.47;;;2.95;;
24715;SDS011;12822;50.124;8.678;2022-07-23T11:00:27;3.90;;;3.10;;
24715;SDS011;12822;50.124;8.678;2022-07-23T11:02:54;8.32;;;3.30;;
24715;SDS011;12822;50.124;8.678;2022-07-23T11:05:22;5.68;;;3.15;;
24715;SDS011;12822;50.124;8.678;2022-07-23T11:24:03;3.20;;;2.70;;
24715;SDS011;12822;50.124;8.678;2022-07-23T11:32:00;5.97;;;3.20;;
24715;SDS011;12822;50.124;8.678;2022-07-23T11:36:58;6.90;;;3.03;;
24715;SDS011;12822;50.124;8.678;2022-07-23T11:39:26;6.18;;;2.90;;
24715;SDS011;12822;50.124;8.678;2022-07-23T11:41:52;5.85;;;2.70;;
24715;SDS011;12822;50.124;8.678;2022-07-23T11:44:25;3.22;;;2.92;;
24715;SDS011;12822;50.124;8.678;2022-07-23T11:46:57;5.18;;;2.65;;
24715;SDS011;12822;50.124;8.678;2022-07-23T11:52:05;4.72;;;3.10;;
24715;SDS011;12822;50.124;8.678;2022-07-23T11:54:36;2.83;;;2.63;;
24715;SDS011;12822;50.124;8.678;2022-07-23T11:57:05;7.07;;;3.13;;
24715;SDS011;12822;50.124;8.678;2022-07-23T11:59:32;3.50;;;2.90;;
24715;SDS011;12822;50.124;8.678;2022-07-23T12:02:03;3.90;;;3.10;;
24715;SDS011;12822;50.124;8.678;2022-07-23T12:04:38;4.80;;;3.22;;
24715;SDS011;12822;50.124;8.678;2022-07-23T12:07:22;3.30;;;3.00;;
24715;SDS011;12822;50.124;8.678;2022-07-23T12:09:48;3.88;;;3.08;;
24715;SDS011;12822;50.124;8.678;2022-07-23T12:12:14;2.85;;;2.60;;
24715;SDS011;12822;50.124;8.678;2022-07-23T12:14:48;5.45;;;3.17;;
24715;SDS011;12822;50.124;8.678;2022-07-23T12:17:14;7.00;;;3.30;;
24715;SDS011;12822;50.124;8.678;2022-07-23T12:19:40;4.60;;;2.72;;
24715;SDS011;12822;50.124;8.678;2022-07-23T12:22:06;4.65;;;3.30;;
24715;SDS011;12822;50.124;8.678;2022-07-23T12:24:52;3.53;;;2.88;;
24715;SDS011;12822;50.124;8.678;2022-07-23T12:27:19;5.07;;;3.22;;
24715;SDS011;12822;50.124;8.678;2022-07-23T12:29:46;3.42;;;3.05;;
24715;SDS011;12822;50.124;8.678;2022-07-23T12:32:28;4.35;;;2.80;;
24715;SDS011;12822;50.124;8.678;2022-07-23T12:35:04;7.90;;;2.90;;
24715;SDS011;12822;50.124;8.678;2022-07-23T12:37:37;6.03;;;3.10;;
24715;SDS011;12822;50.124;8.678;2022-07-23T12:40:23;4.82;;;3.10;;
24715;SDS011;12822;50.124;8.678;2022-07-23T12:42:50;5.80;;;2.83;;
24715;SDS011;12822;50.124;8.678;2022-07-23T12:45:16;3.92;;;3.00;;
24715;SDS011;12822;50.124;8.678;2022-07-23T12:48:04;3.47;;;3.13;;
24715;SDS011;12822;50.124;8.678;2022-07-23T12:53:09;3.80;;;3.25;;
24715;SDS011;12822;50.124;8.678;2022-07-23T12:55:38;3.92;;;3.20;;
24715;SDS011;12822;50.124;8.678;2022-07-23T12:58:15;4.05;;;3.20;;
24715;SDS011;12822;50.124;8.678;2022-07-23T13:03:21;4.10;;;3.22;;
24715;SDS011;12822;50.124;8.678;2022-07-23T13:08:13;4.35;;;3.33;;
24715;SDS011;12822;50.124;8.678;2022-07-23T13:10:39;5.20;;;3.47;;
24715;SDS011;12822;50.124;8.678;2022-07-23T13:13:09;3.30;;;3.00;;
24715;SDS011;12822;50.124;8.678;2022-07-23T13:15:35;4.90;;;3.28;;
24715;SDS011;12822;50.124;8.678;2022-07-23T13:18:02;4.70;;;3.50;;
24715;SDS011;12822;50.124;8.678;2022-07-23T13:20:28;4.25;;;3.83;;
24715;SDS011;12822;50.124;8.678;2022-07-23T13:22:56;5.03;;;3.55;;
24715;SDS011;12822;50.124;8.678;2022-07-23T13:25:22;4.85;;;4.03;;
24715;SDS011;12822;50.124;8.678;2022-07-23T13:27:48;4.07;;;3.58;;
24715;SDS011;12822;50.124;8.678;2022-07-23T13:30:17;7.15;;;3.85;;
24715;SDS011;12822;50.124;8.678;2022-07-23T13:32:43;5.20;;;3.88;;
24715;SDS011;12822;50.124;8.678;2022-07-23T13:35:09;5.32;;;4.10;;
24715;SDS011;12822;50.124;8.678;2022-07-23T13:37:40;6.47;;;3.72;;
24715;SDS011;12822;50.124;8.678;2022-07-23T13:40:33;5.80;;;4.15;;
24715;SDS011;12822;50.124;8.678;2022-07-23T13:42:59;4.78;;;3.85;;
24715;SDS011;12822;50.124;8.678;2022-07-23T13:45:25;7.40;;;3.95;;
24715;SDS011;12822;50.124;8.678;2022-07-23T13:47:51;5.85;;;3.65;;
24715;SDS011;12822;50.124;8.678;2022-07-23T13:50:17;6.63;;;4.30;;
24715;SDS011;12822;50.124;8.678;2022-07-23T13:52:44;7.07;;;3.85;;
24715;SDS011;12822;50.124;8.678;2022-07-23T13:55:10;6.22;;;3.80;;
24715;SDS011;12822;50.124;8.678;2022-07-23T13:57:36;6.15;;;4.13;;
24715;SDS011;12822;50.124;8.678;2022-07-23T14:00:03;5.47;;;3.83;;
24715;SDS011;12822;50.124;8.678;2022-07-23T14:02:29;5.75;;;3.78;;
24715;SDS011;12822;50.124;8.678;2022-07-23T14:04:55;5.72;;;3.95;;
24715;SDS011;12822;50.124;8.678;2022-07-23T14:07:24;5.78;;;3.80;;
24715;SDS011;12822;50.124;8.678;2022-07-23T14:09:53;6.20;;;4.18;;
24715;SDS011;12822;50.124;8.678;2022-07-23T14:12:19;7.57;;;3.92;;
24715;SDS011;12822;50.124;8.678;2022-07-23T14:14:45;6.97;;;4.03;;
24715;SDS011;12822;50.124;8.678;2022-07-23T14:17:11;5.03;;;4.40;;
24715;SDS011;12822;50.124;8.678;2022-07-23T14:19:37;5.70;;;4.25;;
24715;SDS011;12822;50.124;8.678;2022-07-23T14:22:03;5.38;;;4.35;;
24715;SDS011;12822;50.124;8.678;2022-07-23T14:24:29;6.32;;;4.30;;
24715;SDS011;12822;50.124;8.678;2022-07-23T14:26:55;5.55;;;4.35;;
24715;SDS011;12822;50.124;8.678;2022-07-23T14:29:21;6.43;;;4.38;;
24715;SDS011;12822;50.124;8.678;2022-07-23T14:31:48;8.35;;;4.28;;
24715;SDS011;12822;50.124;8.678;2022-07-23T14:34:14;7.07;;;4.72;;
24715;SDS011;12822;50.124;8.678;2022-07-23T14:36:40;7.38;;;4.47;;
24715;SDS011;12822;50.124;8.678;2022-07-23T14:39:09;4.90;;;4.40;;
24715;SDS011;12822;50.124;8.678;2022-07-23T14:41:36;6.72;;;4.38;;
24715;SDS011;12822;50.124;8.678;2022-07-23T14:44:05;6.00;;;4.88;;
24715;SDS011;12822;50.124;8.678;2022-07-23T14:46:52;4.28;;;3.88;;
24715;SDS011;12822;50.124;8.678;2022-07-23T14:49:18;8.25;;;4.32;;
24715;SDS011;12822;50.124;8.678;2022-07-23T14:51:47;7.50;;;4.20;;
24715;SDS011;12822;50.124;8.678;2022-07-23T14:54:14;9.35;;;4.63;;
24715;SDS011;12822;50.124;8.678;2022-07-23T14:56:40;4.40;;;4.00;;
24715;SDS011;12822;50.124;8.678;2022-07-23T14:59:07;5.30;;;4.65;;
24715;SDS011;12822;50.124;8.678;2022-07-23T15:01:34;6.75;;;4.22;;
24715;SDS011;12822;50.124;8.678;2022-07-23T15:04:00;7.20;;;4.63;;
24715;SDS011;12822;50.124;8.678;2022-07-23T15:06:26;7.15;;;4.55;;
24715;SDS011;12822;50.124;8.678;2022-07-23T15:08:52;6.40;;;4.32;;
24715;SDS011;12822;50.124;8.678;2022-07-23T15:11:18;5.20;;;4.45;;
24715;SDS011;12822;50.124;8.678;2022-07-23T15:13:45;7.20;;;3.88;;
24715;SDS011;12822;50.124;8.678;2022-07-23T15:16:14;7.28;;;4.80;;
24715;SDS011;12822;50.124;8.678;2022-07-23T15:18:41;5.50;;;4.15;;
24715;SDS011;12822;50.124;8.678;2022-07-23T15:21:07;11.02;;;4.32;;
24715;SDS011;12822;50.124;8.678;2022-07-23T15:23:33;6.07;;;4.65;;
24715;SDS011;12822;50.124;8.678;2022-07-23T15:26:00;8.25;;;4.32;;
24715;SDS011;12822;50.124;8.678;2022-07-23T15:28:26;6.90;;;4.35;;
24715;SDS011;12822;50.124;8.678;2022-07-23T15:30:55;5.18;;;3.95;;
24715;SDS011;12822;50.124;8.678;2022-07-23T15:33:27;5.28;;;3.80;;
24715;SDS011;12822;50.124;8.678;2022-07-23T15:35:53;5.82;;;4.25;;